Time;durP1;ratioP1;P1;durP2;ratioP2;P2;SDS_P1;SDS_P2;PMS_P1;PMS_P2;Temp;Humidity;BMP_temperature;BMP_pressure;BME280_temperature;BME280_humidity;BME280_pressure;Samples;Min_cycle;Max_cycle;Signal;HPM_P1;HPM_P2
2023/12/04 00:01:15;;;;;;;44.65;20.33;;;-1.00;99.90;;;;;;5046978;28;20025;-45
2023/12/04 00:03:41;;;;;;;46.10;20.50;;;-1.00;99.90;;;;;;5048413;28;20029;-44
2023/12/04 00:06:07;;;;;;;43.78;20.83;;;-1.00;99.90;;;;;;5048481;28;20111;-47
2023/12/04 00:08:33;;;;;;;43.17;19.98;;;-1.10;99.90;;;;;;5048558;28;20029;-44
2023/12/04 00:10:58;;;;;;;46.65;20.40;;;-1.00;99.90;;;;;;5048442;28;20027;-45
2023/12/04 00:13:24;;;;;;;45.03;19.83;;;-1.00;99.90;;;;;;5047206;28;20386;-44
2023/12/04 00:15:50;;;;;;;44.08;19.75;;;-1.10;99.90;;;;;;5048874;28;20059;-48
2023/12/04 00:18:15;;;;;;;46.47;21.90;;;-1.10;99.90;;;;;;5046940;28;20052;-45
2023/12/04 00:20:41;;;;;;;39.20;18.65;;;-1.10;99.90;;;;;;5048246;28;20029;-46
2023/12/04 00:23:06;;;;;;;38.10;19.77;;;-1.10;99.90;;;;;;5046875;28;20021;-46
2023/12/04 00:25:32;;;;;;;37.70;18.80;;;-1.10;99.90;;;;;;5048246;28;20025;-46
2023/12/04 00:27:58;;;;;;;42.05;19.88;;;-1.20;99.90;;;;;;5049837;28;20394;-48
2023/12/04 00:30:23;;;;;;;47.75;21.85;;;-1.20;99.90;;;;;;5042704;28;20044;-48
2023/12/04 00:32:49;;;;;;;51.13;23.90;;;-1.10;99.90;;;;;;5031773;28;20021;-46
2023/12/04 00:35:14;;;;;;;43.72;23.10;;;-1.10;99.90;;;;;;5031854;28;20442;-48
2023/12/04 00:37:40;;;;;;;40.88;20.00;;;-1.00;99.90;;;;;;5041343;28;20041;-45
2023/12/04 00:40:07;;;;;;;48.38;23.58;;;-1.00;99.90;;;;;;5051559;28;20025;-45
2023/12/04 00:42:33;;;;;;;41.22;19.75;;;-1.10;99.90;;;;;;5050437;28;20017;-43
2023/12/04 00:44:58;;;;;;;49.85;22.45;;;-1.00;99.90;;;;;;5050685;28;20086;-46
2023/12/04 00:47:24;;;;;;;41.88;18.85;;;-1.00;99.90;;;;;;5051701;28;20056;-49
2023/12/04 00:49:50;;;;;;;41.95;19.88;;;-1.00;99.90;;;;;;5051500;28;20017;-47
2023/12/04 00:52:15;;;;;;;42.50;19.83;;;-1.10;99.90;;;;;;5050444;28;20017;-49
2023/12/04 00:54:41;;;;;;;41.80;20.40;;;-1.00;99.90;;;;;;5051811;28;20032;-44
2023/12/04 00:57:08;;;;;;;39.83;19.00;;;-1.00;99.90;;;;;;5052006;28;20033;-47
2023/12/04 00:59:34;;;;;;;49.10;20.40;;;-1.00;99.90;;;;;;5051052;28;20481;-45
2023/12/04 01:02:00;;;;;;;44.78;20.25;;;-1.00;99.90;;;;;;5051776;28;20070;-44
2023/12/04 01:04:25;;;;;;;45.42;21.42;;;-0.90;99.90;;;;;;5050180;28;20028;-46
2023/12/04 01:06:52;;;;;;;38.92;19.77;;;-0.90;99.90;;;;;;5051164;28;20041;-44
2023/12/04 01:09:18;;;;;;;43.40;20.08;;;-0.90;99.90;;;;;;5051094;28;20021;-43
2023/12/04 01:11:43;;;;;;;38.88;18.95;;;-0.90;99.90;;;;;;5051145;28;20044;-48
2023/12/04 01:14:09;;;;;;;40.58;19.58;;;-0.90;99.90;;;;;;5051433;28;20024;-44
2023/12/04 01:16:35;;;;;;;37.15;18.73;;;-0.90;99.90;;;;;;5051287;28;20036;-44
2023/12/04 01:19:00;;;;;;;41.13;20.30;;;-0.90;99.90;;;;;;5050755;28;20032;-44
2023/12/04 01:21:26;;;;;;;43.03;19.92;;;-0.90;99.90;;;;;;5051016;28;20094;-44
2023/12/04 01:23:51;;;;;;;37.80;17.75;;;-1.00;99.90;;;;;;5049932;28;20035;-44
2023/12/04 01:26:17;;;;;;;39.83;18.30;;;-1.00;99.90;;;;;;5049816;28;20033;-44
2023/12/04 01:28:44;;;;;;;48.15;21.08;;;-0.90;99.90;;;;;;5050464;28;20079;-43
2023/12/04 01:31:09;;;;;;;38.40;19.33;;;-0.90;99.90;;;;;;5051025;28;20087;-43
2023/12/04 01:33:35;;;;;;;43.42;21.30;;;-0.90;99.90;;;;;;5050956;28;20025;-45
2023/12/04 01:36:02;;;;;;;42.47;20.67;;;-0.90;99.90;;;;;;5049820;28;20021;-44
2023/12/04 01:38:27;;;;;;;40.55;19.48;;;-1.00;99.90;;;;;;5050602;28;20116;-45
2023/12/04 01:40:53;;;;;;;42.80;19.55;;;-1.00;99.90;;;;;;5050840;28;20562;-44
2023/12/04 01:43:18;;;;;;;43.10;20.10;;;-1.00;99.90;;;;;;5050630;28;20033;-43
2023/12/04 01:45:44;;;;;;;39.53;18.10;;;-1.00;99.90;;;;;;5050609;28;20048;-44
2023/12/04 01:48:13;;;;;;;45.67;19.77;;;-1.00;99.90;;;;;;5050186;28;20029;-45
2023/12/04 01:50:39;;;;;;;38.35;17.50;;;-1.00;99.90;;;;;;5050605;28;20053;-45
2023/12/04 01:53:05;;;;;;;36.88;18.17;;;-1.00;99.90;;;;;;5050588;28;20541;-44
2023/12/04 01:55:32;;;;;;;43.10;18.85;;;-1.00;99.90;;;;;;5049001;28;20021;-46
2023/12/04 01:57:59;;;;;;;42.85;19.67;;;-0.90;99.90;;;;;;5050669;28;20386;-45
2023/12/04 02:00:25;;;;;;;39.38;19.77;;;-1.00;99.90;;;;;;5050338;28;20100;-46
2023/12/04 02:02:51;;;;;;;35.45;19.13;;;-1.00;99.90;;;;;;5050114;28;20470;-46
2023/12/04 02:05:18;;;;;;;33.83;16.15;;;-1.00;99.90;;;;;;5050475;28;20023;-44
2023/12/04 02:07:44;;;;;;;41.75;20.15;;;-1.00;99.90;;;;;;5050283;28;20607;-49
2023/12/04 02:10:10;;;;;;;39.95;18.75;;;-1.00;99.90;;;;;;5049836;28;20029;-45
2023/12/04 02:12:36;;;;;;;40.90;19.60;;;-1.00;99.90;;;;;;5049676;28;20033;-48
2023/12/04 02:15:02;;;;;;;40.15;17.65;;;-1.00;99.90;;;;;;5045720;28;20021;-46
2023/12/04 02:17:29;;;;;;;36.33;17.75;;;-1.00;99.90;;;;;;5032230;28;20068;-44
2023/12/04 02:19:55;;;;;;;40.95;19.55;;;-1.00;99.90;;;;;;5030857;28;20026;-44
2023/12/04 02:22:20;;;;;;;39.88;17.70;;;-1.00;99.90;;;;;;5031474;28;20025;-45
2023/12/04 02:24:47;;;;;;;34.67;16.60;;;-1.00;99.90;;;;;;5031584;28;20036;-46
2023/12/04 02:27:16;;;;;;;37.13;16.88;;;-1.00;99.90;;;;;;5031291;28;20100;-44
2023/12/04 02:29:47;;;;;;;34.60;17.58;;;-1.00;99.90;;;;;;5033864;28;20024;-45
2023/12/04 02:32:17;;;;;;;32.65;16.70;;;-0.90;99.90;;;;;;5049946;28;20028;-44
2023/12/04 02:34:46;;;;;;;34.67;16.43;;;-0.90;99.90;;;;;;5049635;28;20029;-44
2023/12/04 02:37:12;;;;;;;40.67;16.65;;;-0.90;99.90;;;;;;5049456;28;20032;-46
2023/12/04 02:39:38;;;;;;;33.00;15.95;;;-0.90;99.90;;;;;;5035632;28;20029;-46
2023/12/04 02:42:04;;;;;;;36.00;16.90;;;-0.90;99.90;;;;;;5033517;28;20029;-44
2023/12/04 02:44:29;;;;;;;32.25;15.20;;;-0.90;99.90;;;;;;5032994;28;20037;-45
2023/12/04 02:46:55;;;;;;;32.00;15.52;;;-0.90;99.90;;;;;;5033975;28;20036;-48
2023/12/04 02:49:21;;;;;;;30.83;15.38;;;-0.90;99.90;;;;;;5029689;28;20026;-45
2023/12/04 02:51:46;;;;;;;30.60;14.75;;;-0.80;99.90;;;;;;5027232;28;20104;-45
2023/12/04 02:54:12;;;;;;;34.17;16.02;;;-0.90;99.90;;;;;;5031203;28;20029;-45
2023/12/04 02:56:38;;;;;;;28.60;15.20;;;-0.90;99.90;;;;;;5038325;28;20095;-44
2023/12/04 02:59:03;;;;;;;27.02;13.55;;;-0.90;99.90;;;;;;5048776;28;20021;-46
2023/12/04 03:01:29;;;;;;;29.73;15.20;;;-0.90;99.90;;;;;;5032280;28;20418;-45
2023/12/04 03:03:54;;;;;;;33.33;16.35;;;-0.90;99.90;;;;;;5031098;28;20029;-45
2023/12/04 03:06:20;;;;;;;27.55;14.55;;;-0.90;99.90;;;;;;5030506;28;20459;-43
2023/12/04 03:08:46;;;;;;;28.42;14.70;;;-1.00;99.90;;;;;;5031355;28;20115;-45
2023/12/04 03:11:11;;;;;;;26.98;13.95;;;-0.90;99.90;;;;;;5043710;28;20036;-47
2023/12/04 03:13:37;;;;;;;27.52;14.15;;;-0.90;99.90;;;;;;5047523;28;20512;-44
2023/12/04 03:16:03;;;;;;;29.52;14.55;;;-0.90;99.90;;;;;;5049162;28;20056;-45
2023/12/04 03:18:28;;;;;;;25.23;13.77;;;-0.80;99.90;;;;;;5047402;28;20497;-45
2023/12/04 03:20:54;;;;;;;30.55;13.73;;;-0.80;99.90;;;;;;5048667;28;20029;-49
2023/12/04 03:23:20;;;;;;;30.42;16.08;;;-0.80;99.90;;;;;;5046558;28;20029;-47
2023/12/04 03:25:45;;;;;;;35.67;14.30;;;-0.70;99.90;;;;;;5048864;28;20033;-44
2023/12/04 03:28:13;;;;;;;27.98;15.57;;;-0.70;99.90;;;;;;5047122;28;20107;-45
2023/12/04 03:30:38;;;;;;;26.35;13.95;;;-0.70;99.90;;;;;;5048632;28;20646;-44
2023/12/04 03:33:04;;;;;;;32.25;16.30;;;-0.60;99.90;;;;;;5048950;28;20028;-46
2023/12/04 03:35:29;;;;;;;30.58;14.70;;;-0.60;99.90;;;;;;5048503;28;20631;-45
2023/12/04 03:37:55;;;;;;;28.33;14.60;;;-0.60;99.90;;;;;;5048466;28;20028;-45
2023/12/04 03:40:21;;;;;;;28.58;14.57;;;-0.60;99.90;;;;;;5047234;28;20029;-48
2023/12/04 03:42:46;;;;;;;27.13;14.77;;;-0.60;99.90;;;;;;5048478;28;20064;-44
2023/12/04 03:45:12;;;;;;;31.52;14.60;;;-0.50;99.90;;;;;;5048482;28;20025;-44
2023/12/04 03:47:37;;;;;;;28.52;14.48;;;-0.50;99.90;;;;;;5048335;28;20025;-44
2023/12/04 03:50:04;;;;;;;31.67;14.90;;;-0.50;99.90;;;;;;5047988;28;20032;-45
2023/12/04 03:52:29;;;;;;;32.47;15.10;;;-0.50;99.90;;;;;;5048562;28;20386;-44
2023/12/04 03:54:55;;;;;;;27.05;14.23;;;-0.50;99.90;;;;;;5047535;28;20021;-46
2023/12/04 03:57:20;;;;;;;29.63;14.57;;;-0.50;99.90;;;;;;5048605;28;20099;-48
2023/12/04 03:59:46;;;;;;;29.98;15.27;;;-0.50;99.90;;;;;;5048206;28;20506;-47
2023/12/04 04:02:12;;;;;;;33.00;15.63;;;-0.50;99.90;;;;;;5050243;28;20021;-45
2023/12/04 04:04:37;;;;;;;28.70;13.15;;;-0.50;99.90;;;;;;5052211;28;20029;-45
2023/12/04 04:07:03;;;;;;;27.80;14.40;;;-0.50;99.90;;;;;;5052431;28;20033;-46
2023/12/04 04:09:28;;;;;;;29.75;14.18;;;-0.50;99.90;;;;;;5052181;28;20497;-46
2023/12/04 04:11:54;;;;;;;26.30;13.77;;;-0.50;99.90;;;;;;5052608;28;20033;-47
2023/12/04 04:14:19;;;;;;;21.52;11.45;;;-0.40;99.90;;;;;;5052359;28;20032;-44
2023/12/04 04:16:45;;;;;;;24.88;12.88;;;-0.40;99.90;;;;;;5052369;28;20025;-45
2023/12/04 04:19:11;;;;;;;26.38;13.77;;;-0.40;99.90;;;;;;5051982;28;20390;-43
2023/12/04 04:21:40;;;;;;;25.25;13.13;;;-0.40;99.90;;;;;;5052400;28;20029;-48
2023/12/04 04:24:06;;;;;;;25.75;13.43;;;-0.40;99.90;;;;;;5050909;28;20040;-44
2023/12/04 04:26:31;;;;;;;25.33;12.18;;;-0.40;99.90;;;;;;5051876;28;20025;-46
2023/12/04 04:28:58;;;;;;;26.83;13.88;;;-0.40;99.90;;;;;;5052417;28;20025;-44
2023/12/04 04:31:24;;;;;;;25.58;13.05;;;-0.40;99.90;;;;;;5052524;28;20036;-46
2023/12/04 04:33:50;;;;;;;23.00;12.30;;;-0.50;99.90;;;;;;5048767;28;20397;-46
2023/12/04 04:36:16;;;;;;;26.38;12.98;;;-0.40;99.90;;;;;;5039398;28;20021;-46
2023/12/04 04:38:42;;;;;;;23.00;12.27;;;-0.40;99.90;;;;;;5051508;28;20029;-49
2023/12/04 04:41:14;;;;;;;24.73;12.63;;;-0.40;99.90;;;;;;5052089;28;20381;-45
2023/12/04 04:43:39;;;;;;;29.23;13.45;;;-0.40;99.90;;;;;;5051871;28;20035;-47
2023/12/04 04:46:05;;;;;;;21.15;11.50;;;-0.40;99.90;;;;;;5051920;28;20021;-46
2023/12/04 04:48:31;;;;;;;21.05;11.75;;;-0.50;99.90;;;;;;5051118;28;20401;-45
2023/12/04 04:50:56;;;;;;;25.58;12.48;;;-0.50;99.90;;;;;;5051817;28;20175;-46
2023/12/04 04:53:22;;;;;;;22.40;12.20;;;-0.50;99.90;;;;;;5051861;28;20210;-45
2023/12/04 04:55:48;;;;;;;26.67;12.10;;;-0.50;99.90;;;;;;5050196;28;20485;-47
2023/12/04 04:58:13;;;;;;;21.20;11.13;;;-0.50;99.90;;;;;;5051644;28;20474;-45
2023/12/04 05:00:39;;;;;;;19.35;10.77;;;-0.50;99.90;;;;;;5051577;28;20032;-45
2023/12/04 05:03:04;;;;;;;25.02;11.32;;;-0.40;99.90;;;;;;5051382;28;20288;-45
2023/12/04 05:05:30;;;;;;;24.38;12.20;;;-0.40;99.90;;;;;;5051150;28;20025;-48
2023/12/04 05:07:55;;;;;;;25.13;13.05;;;-0.40;99.90;;;;;;5051293;28;20033;-46
2023/12/04 05:10:21;;;;;;;24.00;11.82;;;-0.40;99.90;;;;;;5051029;28;20029;-44
2023/12/04 05:12:47;;;;;;;23.58;12.30;;;-0.40;99.90;;;;;;5050825;28;20021;-46
2023/12/04 05:15:12;;;;;;;25.42;12.40;;;-0.40;99.90;;;;;;5051755;28;20466;-45
2023/12/04 05:17:38;;;;;;;25.40;12.32;;;-0.40;99.90;;;;;;5051145;28;20131;-45
2023/12/04 05:20:04;;;;;;;29.63;14.18;;;-0.40;99.90;;;;;;5049676;28;20017;-48
2023/12/04 05:22:30;;;;;;;26.75;12.98;;;-0.50;99.90;;;;;;5051143;28;20021;-55
2023/12/04 05:24:55;;;;;;;25.85;13.35;;;-0.50;99.90;;;;;;5047385;28;20501;-53
2023/12/04 05:27:21;;;;;;;25.08;12.75;;;-0.50;99.90;;;;;;5032048;28;20029;-54
2023/12/04 05:29:46;;;;;;;26.17;13.52;;;-0.40;99.90;;;;;;5034195;28;20021;-54
2023/12/04 05:32:13;;;;;;;28.02;13.60;;;-0.40;99.90;;;;;;5038768;28;20021;-55
2023/12/04 05:34:38;;;;;;;27.30;13.85;;;-0.40;99.90;;;;;;5050828;28;20017;-55
2023/12/04 05:37:04;;;;;;;30.40;13.55;;;-0.30;99.90;;;;;;5050938;28;20132;-55
2023/12/04 05:39:30;;;;;;;28.55;13.48;;;-0.30;99.90;;;;;;5050525;28;20029;-54
2023/12/04 05:41:55;;;;;;;29.10;14.82;;;-0.30;99.90;;;;;;5051394;28;20470;-55
2023/12/04 05:44:21;;;;;;;29.08;14.88;;;-0.30;99.90;;;;;;5051014;28;20029;-54
2023/12/04 05:46:46;;;;;;;30.90;14.40;;;-0.30;99.90;;;;;;5050605;28;20105;-53
2023/12/04 05:49:12;;;;;;;26.90;13.45;;;-0.40;99.90;;;;;;5050507;28;20040;-54
2023/12/04 05:51:38;;;;;;;27.02;14.57;;;-0.30;99.90;;;;;;5050373;28;20082;-53
2023/12/04 05:54:03;;;;;;;25.85;13.65;;;-0.30;99.90;;;;;;5050639;28;20029;-52
2023/12/04 05:56:29;;;;;;;29.88;14.93;;;-0.30;99.90;;;;;;5050362;28;20433;-52
2023/12/04 05:58:55;;;;;;;31.15;14.23;;;-0.30;99.90;;;;;;5050172;28;20444;-53
2023/12/04 06:01:21;;;;;;;28.98;14.40;;;-0.30;99.90;;;;;;5050106;28;20036;-53
2023/12/04 06:03:47;;;;;;;33.83;15.13;;;-0.30;99.90;;;;;;5050007;28;20025;-53
2023/12/04 06:06:12;;;;;;;29.00;16.00;;;-0.40;99.90;;;;;;5050445;28;20033;-52
2023/12/04 06:08:38;;;;;;;28.95;14.50;;;-0.40;99.90;;;;;;5049869;28;20090;-53
2023/12/04 06:11:04;;;;;;;33.08;15.18;;;-0.40;99.90;;;;;;5050180;28;20029;-54
2023/12/04 06:13:29;;;;;;;28.42;13.90;;;-0.50;99.90;;;;;;5050070;28;20517;-53
2023/12/04 06:15:55;;;;;;;33.47;16.65;;;-0.50;99.90;;;;;;5049887;28;20494;-53
2023/12/04 06:18:20;;;;;;;27.42;15.15;;;-0.40;99.90;;;;;;5032261;28;20097;-54
2023/12/04 06:20:46;;;;;;;31.00;14.85;;;-0.40;99.90;;;;;;5032714;28;20036;-54
2023/12/04 06:23:12;;;;;;;30.38;15.07;;;-0.40;99.90;;;;;;5031272;28;20115;-53
2023/12/04 06:25:38;;;;;;;36.97;16.05;;;-0.40;99.90;;;;;;5027737;28;20036;-50
2023/12/04 06:28:04;;;;;;;28.75;14.02;;;-0.40;99.90;;;;;;5028662;28;20038;-53
2023/12/04 06:30:30;;;;;;;27.27;13.88;;;-0.40;99.90;;;;;;5026737;28;20029;-52
2023/12/04 06:32:56;;;;;;;28.63;13.38;;;-0.30;99.90;;;;;;5029718;28;20457;-54
2023/12/04 06:35:22;;;;;;;29.98;15.65;;;-0.30;99.90;;;;;;5041994;28;20026;-53
2023/12/04 06:37:49;;;;;;;29.85;13.98;;;-0.40;99.90;;;;;;5029797;28;20057;-52
2023/12/04 06:40:17;;;;;;;30.80;14.00;;;-0.30;99.90;;;;;;5033336;28;20028;-53
2023/12/04 06:42:42;;;;;;;26.33;12.95;;;-0.20;99.90;;;;;;5049671;28;20044;-54
2023/12/04 06:45:09;;;;;;;26.73;13.25;;;-0.20;99.90;;;;;;5049584;28;20049;-54
2023/12/04 06:47:35;;;;;;;25.98;12.73;;;-0.20;99.90;;;;;;5049627;28;20025;-54
2023/12/04 06:50:00;;;;;;;30.40;14.52;;;-0.20;99.90;;;;;;5048006;28;20181;-53
2023/12/04 06:52:26;;;;;;;24.77;13.48;;;-0.20;99.90;;;;;;5049473;28;20029;-54
2023/12/04 06:54:51;;;;;;;27.60;14.18;;;-0.20;99.90;;;;;;5049381;28;20100;-54
2023/12/04 06:57:17;;;;;;;28.25;13.75;;;-0.20;99.90;;;;;;5049507;28;20677;-53
2023/12/04 06:59:43;;;;;;;25.67;12.43;;;-0.20;99.90;;;;;;5048981;28;20441;-54
2023/12/04 07:02:08;;;;;;;26.50;12.82;;;-0.20;99.90;;;;;;5049662;28;20029;-54
2023/12/04 07:04:34;;;;;;;28.63;14.27;;;-0.20;99.90;;;;;;5046813;28;20036;-54
2023/12/04 07:07:04;;;;;;;28.60;14.05;;;-0.20;99.90;;;;;;5035283;28;20033;-46
2023/12/04 07:09:31;;;;;;;26.65;13.60;;;-0.20;99.90;;;;;;5048962;28;20079;-53
2023/12/04 07:11:57;;;;;;;28.55;13.50;;;-0.20;99.90;;;;;;5048987;28;20237;-53
2023/12/04 07:14:23;;;;;;;25.00;11.93;;;-0.10;99.90;;;;;;5047848;28;20021;-53
2023/12/04 07:16:49;;;;;;;24.85;12.52;;;-0.10;99.90;;;;;;5047568;28;20045;-54
2023/12/04 07:19:16;;;;;;;24.08;12.40;;;0.00;99.90;;;;;;5041211;28;20036;-55
2023/12/04 07:21:42;;;;;;;24.95;12.40;;;-0.10;99.90;;;;;;5039101;28;20033;-54
2023/12/04 07:24:08;;;;;;;21.98;10.57;;;-0.10;99.90;;;;;;5029177;28;20386;-54
2023/12/04 07:26:34;;;;;;;19.58;10.55;;;-0.10;99.90;;;;;;5028595;28;20414;-55
2023/12/04 07:29:01;;;;;;;20.85;10.77;;;-0.10;99.90;;;;;;5023080;28;20305;-54
2023/12/04 07:31:26;;;;;;;23.75;11.68;;;-0.10;99.90;;;;;;5046048;28;20029;-54
2023/12/04 07:33:53;;;;;;;20.02;10.95;;;-0.10;99.90;;;;;;5043371;28;20558;-55
2023/12/04 07:36:19;;;;;;;24.25;11.57;;;-0.10;99.90;;;;;;5048765;28;20283;-55
2023/12/04 07:38:45;;;;;;;20.35;10.50;;;0.00;99.90;;;;;;5048269;28;20033;-55
2023/12/04 07:41:11;;;;;;;20.90;11.75;;;0.00;99.90;;;;;;5047449;28;20028;-55
2023/12/04 07:43:36;;;;;;;21.60;11.52;;;0.00;99.90;;;;;;5048783;28;20679;-55
2023/12/04 07:46:03;;;;;;;18.70;10.77;;;0.00;99.90;;;;;;5048763;28;20075;-55
2023/12/04 07:48:29;;;;;;;23.45;11.70;;;0.00;99.90;;;;;;5039972;28;20057;-55
2023/12/04 07:50:55;;;;;;;27.60;13.05;;;0.00;99.90;;;;;;5026757;28;20075;-55
2023/12/04 07:53:21;;;;;;;19.83;11.02;;;0.00;99.90;;;;;;5036708;28;20033;-57
2023/12/04 07:55:48;;;;;;;21.17;10.48;;;0.00;99.90;;;;;;5048356;28;20037;-55
2023/12/04 07:58:14;;;;;;;22.60;11.65;;;0.10;99.90;;;;;;5047047;28;20039;-55
2023/12/04 08:00:39;;;;;;;20.45;10.15;;;0.10;99.90;;;;;;5038972;28;20030;-55
2023/12/04 08:03:05;;;;;;;22.05;10.93;;;0.10;99.90;;;;;;5048656;28;20398;-55
2023/12/04 08:05:31;;;;;;;21.83;11.35;;;0.10;99.90;;;;;;5048509;28;20029;-55
2023/12/04 08:07:57;;;;;;;19.08;10.05;;;0.10;99.90;;;;;;5037083;28;20017;-55
2023/12/04 08:10:23;;;;;;;19.35;10.20;;;0.10;99.90;;;;;;5036072;28;20453;-55
2023/12/04 08:12:49;;;;;;;18.00;10.35;;;0.20;99.90;;;;;;5048574;28;20466;-55
2023/12/04 08:15:15;;;;;;;21.45;10.98;;;0.20;99.90;;;;;;5048517;28;20052;-55
2023/12/04 08:17:41;;;;;;;18.80;10.02;;;0.30;99.90;;;;;;5043458;28;20521;-55
2023/12/04 08:20:07;;;;;;;18.98;9.90;;;0.30;99.90;;;;;;5048113;28;20025;-55
2023/12/04 08:22:33;;;;;;;18.30;9.98;;;0.30;99.90;;;;;;5043380;28;20364;-55
2023/12/04 08:24:59;;;;;;;17.33;10.63;;;0.30;99.90;;;;;;5041164;28;20027;-55
2023/12/04 08:27:24;;;;;;;21.58;10.90;;;0.30;99.90;;;;;;5047960;28;20324;-55
2023/12/04 08:29:50;;;;;;;20.50;11.02;;;0.40;99.90;;;;;;5042552;28;20495;-55
2023/12/04 08:32:16;;;;;;;17.73;9.63;;;0.40;99.90;;;;;;5042106;28;20597;-55
2023/12/04 08:34:41;;;;;;;18.02;10.50;;;0.40;99.90;;;;;;5045982;28;20074;-55
2023/12/04 08:37:07;;;;;;;21.67;10.95;;;0.50;99.90;;;;;;5042028;28;20096;-56
2023/12/04 08:39:32;;;;;;;19.65;10.65;;;0.40;99.90;;;;;;5048276;28;20486;-55
2023/12/04 08:41:58;;;;;;;21.38;10.23;;;0.50;99.90;;;;;;5047888;28;20497;-55
2023/12/04 08:44:24;;;;;;;18.70;9.80;;;0.40;99.90;;;;;;5048212;28;20429;-56
2023/12/04 08:46:50;;;;;;;20.42;10.15;;;0.60;99.90;;;;;;5048003;28;20032;-55
2023/12/04 08:49:16;;;;;;;22.52;11.15;;;0.60;99.90;;;;;;5050772;28;20200;-55
2023/12/04 08:51:41;;;;;;;22.10;10.65;;;0.60;99.90;;;;;;5051481;28;20025;-55
2023/12/04 08:54:07;;;;;;;18.67;10.65;;;0.70;99.90;;;;;;5052005;28;20024;-55
2023/12/04 08:56:33;;;;;;;16.95;9.98;;;0.70;99.90;;;;;;5042343;28;20033;-55
2023/12/04 08:58:58;;;;;;;19.80;11.15;;;0.80;99.90;;;;;;5051195;28;20111;-56
2023/12/04 09:01:24;;;;;;;21.17;10.90;;;0.80;99.90;;;;;;5050343;28;20112;-55
2023/12/04 09:03:51;;;;;;;20.75;10.98;;;0.80;99.90;;;;;;5051915;28;20020;-56
2023/12/04 09:06:17;;;;;;;19.08;11.05;;;0.80;99.90;;;;;;5052046;28;20125;-56
2023/12/04 09:08:43;;;;;;;19.98;11.57;;;0.80;99.90;;;;;;5051333;28;20492;-55
2023/12/04 09:11:08;;;;;;;21.33;11.30;;;0.90;99.90;;;;;;5051270;28;20059;-56
2023/12/04 09:13:34;;;;;;;20.10;10.52;;;0.90;99.90;;;;;;5051579;28;20163;-55
2023/12/04 09:16:00;;;;;;;21.20;11.25;;;0.90;99.90;;;;;;5051319;28;20024;-55
2023/12/04 09:18:25;;;;;;;20.70;10.75;;;1.00;99.90;;;;;;5050912;28;20036;-56
2023/12/04 09:20:52;;;;;;;20.52;11.23;;;0.90;99.90;;;;;;5051089;28;20021;-56
2023/12/04 09:23:17;;;;;;;19.65;11.35;;;0.90;99.90;;;;;;5049642;28;20021;-56
2023/12/04 09:25:43;;;;;;;19.33;10.80;;;1.00;99.90;;;;;;5050973;28;20032;-56
2023/12/04 09:28:08;;;;;;;19.85;10.57;;;1.00;99.90;;;;;;5050802;28;20040;-55
2023/12/04 09:30:36;;;;;;;21.90;12.00;;;1.00;99.90;;;;;;5051021;28;20017;-55
2023/12/04 09:33:02;;;;;;;18.30;10.40;;;1.00;99.90;;;;;;5051108;28;20151;-56
2023/12/04 09:35:28;;;;;;;17.13;10.52;;;1.00;99.90;;;;;;5050916;28;20017;-55
2023/12/04 09:37:54;;;;;;;21.40;10.38;;;1.00;99.90;;;;;;5043211;28;20037;-56
2023/12/04 09:40:19;;;;;;;19.65;10.65;;;1.00;99.90;;;;;;5050589;28;20100;-55
2023/12/04 09:42:45;;;;;;;22.52;11.57;;;0.90;99.90;;;;;;5041197;28;20128;-56
2023/12/04 09:45:13;;;;;;;21.33;12.00;;;0.90;99.90;;;;;;5050003;28;20071;-55
2023/12/04 09:47:38;;;;;;;21.13;11.80;;;0.90;99.90;;;;;;5041379;28;20021;-55
2023/12/04 09:50:05;;;;;;;22.02;11.65;;;1.00;99.90;;;;;;5048448;28;20450;-55
2023/12/04 09:52:34;;;;;;;21.15;10.52;;;0.90;99.90;;;;;;5040735;28;20053;-56
2023/12/04 09:54:59;;;;;;;18.77;11.00;;;1.00;99.90;;;;;;5050198;28;20028;-55
2023/12/04 09:57:26;;;;;;;21.77;11.85;;;1.00;99.90;;;;;;5042582;28;20055;-55
2023/12/04 09:59:52;;;;;;;18.27;10.30;;;1.00;99.90;;;;;;5048451;28;20482;-55
2023/12/04 10:02:19;;;;;;;18.65;10.07;;;1.00;99.90;;;;;;5042419;28;20040;-55
2023/12/04 10:04:46;;;;;;;20.80;10.35;;;1.00;99.90;;;;;;5049454;28;20108;-56
2023/12/04 10:07:11;;;;;;;21.23;10.65;;;0.90;99.90;;;;;;5040976;28;20048;-56
2023/12/04 10:09:37;;;;;;;17.48;10.25;;;0.90;99.90;;;;;;5049767;28;20156;-55
2023/12/04 10:12:03;;;;;;;19.25;10.65;;;1.00;99.90;;;;;;5042789;28;20466;-55
2023/12/04 10:14:30;;;;;;;16.75;9.45;;;1.00;99.90;;;;;;5048377;28;20025;-56
2023/12/04 10:16:55;;;;;;;23.50;12.05;;;1.10;99.90;;;;;;5048701;28;20032;-56
2023/12/04 10:19:22;;;;;;;22.52;11.98;;;1.10;99.90;;;;;;5049886;28;20025;-55
2023/12/04 10:21:49;;;;;;;19.33;9.60;;;1.10;99.90;;;;;;5050216;28;20124;-55
2023/12/04 10:24:33;;;;;;;16.92;9.68;;;1.10;99.90;;;;;;5049775;28;20221;-55
2023/12/04 10:26:59;;;;;;;20.58;12.07;;;1.20;99.90;;;;;;5050150;28;20116;-55
2023/12/04 10:29:30;;;;;;;24.23;13.05;;;1.30;99.90;;;;;;5049805;28;20033;-55
2023/12/04 10:31:58;;;;;;;25.95;13.52;;;1.20;99.90;;;;;;5049874;28;20029;-55
2023/12/04 10:34:26;;;;;;;25.80;13.63;;;1.20;99.90;;;;;;5048230;28;20433;-55
2023/12/04 10:36:52;;;;;;;22.50;12.68;;;1.30;99.90;;;;;;5022768;28;20038;-55
2023/12/04 10:39:17;;;;;;;27.65;14.07;;;1.30;99.90;;;;;;5029498;28;20018;-55
2023/12/04 10:41:44;;;;;;;26.42;14.00;;;1.30;99.90;;;;;;5028769;28;20517;-55
2023/12/04 10:44:09;;;;;;;27.55;13.73;;;1.40;99.90;;;;;;5029979;28;20018;-56
2023/12/04 10:46:37;;;;;;;28.58;14.15;;;1.50;99.90;;;;;;5029576;28;20351;-55
2023/12/04 10:49:04;;;;;;;24.50;13.43;;;1.60;99.90;;;;;;5028884;28;20362;-55
2023/12/04 10:51:30;;;;;;;25.38;12.63;;;1.60;99.90;;;;;;5029366;28;20176;-55
2023/12/04 10:53:56;;;;;;;26.52;14.55;;;1.70;99.90;;;;;;5029641;28;20475;-56
2023/12/04 10:56:31;;;;;;;18.95;11.07;;;1.70;99.90;;;;;;5045464;28;20151;-55
2023/12/04 10:59:00;;;;;;;22.75;12.07;;;1.70;99.90;;;;;;5047660;28;20151;-56
2023/12/04 11:01:26;;;;;;;24.20;11.95;;;1.90;99.90;;;;;;5049216;28;20393;-55
2023/12/04 11:03:54;;;;;;;22.02;11.88;;;1.80;99.90;;;;;;5049464;28;20032;-56
2023/12/04 11:06:22;;;;;;;22.25;12.80;;;1.90;99.90;;;;;;5049434;28;20104;-56
2023/12/04 11:08:57;;;;;;;21.58;12.40;;;1.80;99.90;;;;;;5048853;28;20025;-56
2023/12/04 11:11:30;;;;;;;21.30;12.00;;;1.80;99.90;;;;;;5048981;28;20020;-56
2023/12/04 11:14:01;;;;;;;22.38;12.60;;;1.80;99.90;;;;;;5049543;28;20017;-55
2023/12/04 11:16:50;;;;;;;21.77;12.25;;;1.90;99.90;;;;;;5047556;28;20078;-56
2023/12/04 11:19:37;;;;;;;24.35;12.98;;;1.90;99.90;;;;;;5040010;28;20060;-55
2023/12/04 11:22:04;;;;;;;22.15;12.20;;;1.80;99.90;;;;;;5049099;28;20036;-56
2023/12/04 11:24:32;;;;;;;22.05;12.00;;;1.80;99.90;;;;;;5040417;28;20155;-55
2023/12/04 11:26:58;;;;;;;23.55;13.15;;;1.90;99.90;;;;;;5046647;28;20021;-56
2023/12/04 11:29:24;;;;;;;20.88;12.38;;;1.80;99.90;;;;;;5028010;28;20324;-56
2023/12/04 11:31:50;;;;;;;22.00;12.32;;;1.90;99.90;;;;;;5028144;28;20502;-56
2023/12/04 11:34:16;;;;;;;19.95;11.60;;;1.80;99.90;;;;;;5027969;28;20032;-55
2023/12/04 11:36:42;;;;;;;22.40;12.40;;;1.80;99.90;;;;;;5028084;28;20029;-55
2023/12/04 11:39:11;;;;;;;20.38;12.05;;;1.70;99.90;;;;;;5027986;28;20110;-55
2023/12/04 11:41:37;;;;;;;19.48;11.43;;;1.80;99.90;;;;;;5028104;28;20109;-55
2023/12/04 11:44:03;;;;;;;20.70;11.57;;;1.90;99.90;;;;;;5026003;28;20506;-56
2023/12/04 11:46:31;;;;;;;19.08;10.63;;;1.90;99.90;;;;;;5027838;28;20030;-56
2023/12/04 11:49:17;;;;;;;22.00;11.40;;;2.00;99.90;;;;;;5028027;28;20042;-55
2023/12/04 11:51:46;;;;;;;20.65;11.48;;;2.00;99.90;;;;;;5028036;28;20068;-57
2023/12/04 11:54:15;;;;;;;21.50;11.73;;;1.90;99.90;;;;;;5028150;28;20459;-54
2023/12/04 11:56:49;;;;;;;19.42;10.70;;;1.90;99.90;;;;;;5028338;28;20033;-55
2023/12/04 11:59:14;;;;;;;18.45;11.57;;;2.00;99.90;;;;;;5025530;28;20021;-56
2023/12/04 12:01:43;;;;;;;16.60;10.32;;;2.00;99.90;;;;;;5028620;28;20414;-56
2023/12/04 12:04:10;;;;;;;22.25;11.68;;;2.00;99.90;;;;;;5028025;28;20338;-56
2023/12/04 12:06:35;;;;;;;19.60;11.13;;;2.10;99.90;;;;;;5030606;28;20112;-55
2023/12/04 12:09:01;;;;;;;20.60;11.93;;;2.00;99.90;;;;;;5031697;28;20116;-56
2023/12/04 12:11:27;;;;;;;21.50;10.95;;;2.00;99.90;;;;;;5048389;28;20033;-55
2023/12/04 12:13:53;;;;;;;18.35;10.20;;;2.00;99.90;;;;;;5048173;28;20029;-55
2023/12/04 12:16:19;;;;;;;21.80;11.65;;;2.00;99.90;;;;;;5048155;28;20017;-56
2023/12/04 12:18:46;;;;;;;17.65;11.13;;;2.00;99.90;;;;;;5044555;28;20521;-55
2023/12/04 12:21:12;;;;;;;18.48;11.13;;;1.90;99.90;;;;;;5035301;28;20056;-55
2023/12/04 12:23:38;;;;;;;18.90;10.85;;;1.80;99.90;;;;;;5048803;28;20033;-55
2023/12/04 12:26:04;;;;;;;22.58;10.60;;;1.80;99.90;;;;;;5048686;28;20037;-55